Time;durP1;ratioP1;P1;durP2;ratioP2;P2;SDS_P1;SDS_P2;PMS_P1;PMS_P2;Temp;Humidity;BMP_temperature;BMP_pressure;BME280_temperature;BME280_humidity;BME280_pressure;Samples;Min_cycle;Max_cycle;Signal;HPM_P1;HPM_P2
2021/05/09 00:00:37;;;;;;;0.70;0.70;;;;;;;6.52;55.56;94025.25;5048090;28;20021;-58
2021/05/09 00:03:03;;;;;;;3.30;1.80;;;;;;;6.52;55.40;94022.50;5047185;28;20024;-58
2021/05/09 00:05:29;;;;;;;2.75;2.00;;;;;;;6.55;55.68;94021.47;5035355;28;20127;-58
2021/05/09 00:07:54;;;;;;;0.98;0.88;;;;;;;6.42;55.41;94021.31;5041725;28;20021;-58
2021/05/09 00:10:20;;;;;;;1.27;1.17;;;;;;;6.42;55.70;94019.31;5055379;27;20090;-57
2021/05/09 00:12:46;;;;;;;1.77;0.80;;;;;;;6.52;55.20;94017.03;5152820;27;20022;-58
2021/05/09 00:15:13;;;;;;;1.25;0.90;;;;;;;6.55;55.65;94024.22;5152468;27;20107;-58
2021/05/09 00:17:39;;;;;;;0.80;0.80;;;;;;;6.56;56.54;94029.19;5097588;27;20047;-58
2021/05/09 00:20:09;;;;;;;1.83;1.65;;;;;;;6.34;55.92;94018.38;5047497;28;20032;-57
2021/05/09 00:22:35;;;;;;;3.05;1.08;;;;;;;6.22;56.77;94016.19;5047682;28;20158;-57
2021/05/09 00:25:01;;;;;;;1.50;1.40;;;;;;;6.06;57.91;94015.75;5046682;28;20107;-55
2021/05/09 00:27:27;;;;;;;1.25;1.15;;;;;;;5.94;58.25;94014.31;5047684;28;20029;-53
2021/05/09 00:29:52;;;;;;;2.17;1.77;;;;;;;5.82;57.71;94015.59;5047344;28;20025;-56
2021/05/09 00:32:18;;;;;;;1.70;1.13;;;;;;;5.73;58.89;94012.38;5047252;28;20073;-55
2021/05/09 00:34:43;;;;;;;1.20;1.10;;;;;;;5.68;59.48;94010.41;5047604;28;20017;-54
2021/05/09 00:37:08;;;;;;;1.95;0.85;;;;;;;5.74;59.26;94011.88;5047127;28;20085;-56
2021/05/09 00:39:34;;;;;;;1.33;1.23;;;;;;;5.67;58.73;94015.16;5047542;28;20486;-58
2021/05/09 00:42:04;;;;;;;2.58;1.13;;;;;;;5.74;58.33;94016.63;5047360;28;20536;-50
2021/05/09 00:44:29;;;;;;;0.82;0.82;;;;;;;5.65;60.01;93995.72;5031702;28;20032;-47
2021/05/09 00:46:55;;;;;;;1.75;1.38;;;;;;;5.72;58.97;94008.91;5026909;28;20493;-50
2021/05/09 00:49:20;;;;;;;1.25;0.95;;;;;;;5.59;59.51;94011.44;5039883;28;20093;-49
2021/05/09 00:51:48;;;;;;;1.98;1.67;;;;;;;5.46;59.85;94011.22;5047350;28;20031;-48
2021/05/09 00:54:19;;;;;;;1.50;1.40;;;;;;;5.68;60.65;94008.41;5047330;28;20025;-49
2021/05/09 00:56:45;;;;;;;3.47;1.48;;;;;;;5.40;60.36;93996.81;5045884;28;20017;-50
2021/05/09 00:59:11;;;;;;;1.40;1.27;;;;;;;5.45;60.73;94009.00;5046880;28;20025;-52
2021/05/09 01:01:37;;;;;;;1.17;1.05;;;;;;;5.22;59.84;94019.22;5045003;28;20100;-50
2021/05/09 01:04:04;;;;;;;1.20;0.90;;;;;;;5.34;59.78;94001.56;5046181;28;20101;-51
2021/05/09 01:06:31;;;;;;;5.35;1.60;;;;;;;5.35;59.81;94006.53;5045320;27;20069;-48
2021/05/09 01:08:59;;;;;;;1.75;1.60;;;;;;;5.17;57.86;94020.75;5045861;28;20457;-50
2021/05/09 01:11:24;;;;;;;1.52;1.10;;;;;;;5.28;58.22;94000.81;5046916;28;20017;-52
2021/05/09 01:13:50;;;;;;;1.83;1.65;;;;;;;5.22;58.62;94014.50;5046974;28;20047;-54
2021/05/09 01:16:16;;;;;;;3.60;1.40;;;;;;;5.20;59.04;94021.72;5046659;28;20044;-48
2021/05/09 01:18:41;;;;;;;4.60;2.25;;;;;;;5.27;58.50;94016.50;5046231;28;20044;-52
2021/05/09 01:21:07;;;;;;;2.45;1.40;;;;;;;5.20;58.35;94010.78;5046338;28;20082;-49
2021/05/09 01:23:32;;;;;;;1.33;1.20;;;;;;;5.29;59.21;94002.31;5046494;28;20036;-50
2021/05/09 01:25:57;;;;;;;1.40;1.30;;;;;;;5.29;58.47;93996.81;5046593;28;20029;-50
2021/05/09 01:28:23;;;;;;;1.23;1.13;;;;;;;5.32;58.33;93991.13;5042561;28;20032;-51
2021/05/09 01:30:48;;;;;;;0.77;0.77;;;;;;;5.22;58.14;93967.22;5042199;28;20501;-48
2021/05/09 01:33:14;;;;;;;1.40;1.30;;;;;;;5.53;57.71;93997.00;5046370;28;20466;-58
2021/05/09 01:35:39;;;;;;;1.60;0.95;;;;;;;5.46;58.00;94003.00;5040494;28;20466;-57
2021/05/09 01:38:05;;;;;;;4.50;1.20;;;;;;;5.44;57.16;93997.28;5031380;28;20500;-57
2021/05/09 01:40:31;;;;;;;2.30;1.63;;;;;;;5.54;58.88;94000.50;5045197;28;20036;-57
2021/05/09 01:42:56;;;;;;;1.38;1.27;;;;;;;5.56;57.05;94000.75;5046202;28;20033;-50
2021/05/09 01:45:22;;;;;;;1.55;1.45;;;;;;;5.47;57.93;94001.03;5046594;28;20021;-50
2021/05/09 01:47:47;;;;;;;1.50;1.40;;;;;;;5.55;58.13;94005.47;5046490;28;20469;-50
2021/05/09 01:50:16;;;;;;;1.60;1.45;;;;;;;5.52;57.41;93995.53;5046528;28;20108;-56
2021/05/09 01:52:42;;;;;;;0.70;0.70;;;;;;;5.48;60.26;94005.97;5046273;28;20033;-56
2021/05/09 01:55:10;;;;;;;1.50;1.40;;;;;;;5.42;58.30;93999.03;5046351;28;20406;-54
2021/05/09 01:57:35;;;;;;;0.68;0.68;;;;;;;5.53;58.15;94005.22;5046564;28;20420;-53
2021/05/09 02:00:03;;;;;;;1.52;0.75;;;;;;;5.45;58.40;94007.00;5046266;28;20029;-54
2021/05/09 02:02:28;;;;;;;1.05;0.80;;;;;;;5.11;60.62;94017.25;5046104;28;20543;-55
2021/05/09 02:04:54;;;;;;;1.48;0.93;;;;;;;4.84;60.71;93998.88;5046513;28;20048;-56
2021/05/09 02:07:19;;;;;;;3.67;1.65;;;;;;;4.98;59.85;94014.28;5045587;28;20052;-55
2021/05/09 02:09:45;;;;;;;1.08;1.08;;;;;;;5.02;59.70;94017.53;5046384;28;20021;-49
2021/05/09 02:12:11;;;;;;;2.72;1.75;;;;;;;4.98;60.31;94027.25;5111656;27;20553;-54
2021/05/09 02:14:36;;;;;;;1.02;0.95;;;;;;;4.86;60.47;94028.47;5046328;28;20040;-55
2021/05/09 02:17:03;;;;;;;1.83;1.25;;;;;;;4.73;61.73;94042.66;5046130;28;20029;-53
2021/05/09 02:19:29;;;;;;;1.52;1.42;;;;;;;4.58;62.33;94040.16;5045644;28;20045;-57
2021/05/09 02:21:54;;;;;;;0.73;0.70;;;;;;;4.60;62.57;94028.72;5046174;28;20025;-59
2021/05/09 02:24:20;;;;;;;2.90;1.38;;;;;;;4.59;62.98;94043.66;5045772;28;20040;-58
2021/05/09 02:26:45;;;;;;;4.10;0.98;;;;;;;4.41;62.72;94036.66;5044355;28;20036;-58
2021/05/09 02:29:11;;;;;;;0.77;0.63;;;;;;;4.57;61.66;94035.16;5045802;28;20493;-57
2021/05/09 02:31:36;;;;;;;1.33;1.23;;;;;;;4.58;62.16;94037.41;5045610;28;20021;-57
2021/05/09 02:34:02;;;;;;;1.20;1.10;;;;;;;4.52;64.08;94044.88;5045737;28;20116;-57
2021/05/09 02:36:27;;;;;;;2.55;2.35;;;;;;;4.53;63.88;94049.09;5045998;28;20029;-51
2021/05/09 02:38:53;;;;;;;1.92;1.75;;;;;;;4.51;63.83;94045.34;5045902;28;20085;-53
2021/05/09 02:41:20;;;;;;;1.85;1.33;;;;;;;4.22;64.12;94027.41;5045829;28;20413;-58
2021/05/09 02:43:45;;;;;;;3.67;2.40;;;;;;;4.28;64.31;94044.56;5045623;28;20028;-54
2021/05/09 02:46:12;;;;;;;7.97;3.53;;;;;;;4.27;64.73;94054.00;5045659;28;20089;-49
2021/05/09 02:48:37;;;;;;;1.63;1.52;;;;;;;4.35;64.20;94054.28;5047272;28;20081;-50
2021/05/09 02:51:03;;;;;;;1.33;1.23;;;;;;;4.38;63.89;94062.25;5049256;28;20029;-50
2021/05/09 02:53:28;;;;;;;7.80;1.90;;;;;;;4.38;63.34;94053.28;5049309;28;20025;-49
2021/05/09 02:55:54;;;;;;;2.13;2.03;;;;;;;4.26;64.98;94057.25;5049479;28;20017;-51
2021/05/09 02:58:19;;;;;;;0.85;0.85;;;;;;;4.26;64.33;94062.72;5049105;28;20029;-48
2021/05/09 03:00:45;;;;;;;1.75;1.55;;;;;;;4.05;65.02;94053.94;5049006;28;20085;-50
2021/05/09 03:03:10;;;;;;;1.45;1.35;;;;;;;3.98;64.62;94065.34;5048700;28;20041;-48
2021/05/09 03:05:36;;;;;;;1.13;1.02;;;;;;;3.75;65.36;94069.22;5048859;28;20093;-47
2021/05/09 03:08:01;;;;;;;1.13;0.93;;;;;;;3.87;65.59;94067.28;5048403;27;20034;-53
2021/05/09 03:10:27;;;;;;;2.15;1.13;;;;;;;3.44;66.85;94077.50;5048622;28;20028;-55
2021/05/09 03:12:52;;;;;;;0.60;0.60;;;;;;;3.26;67.12;94040.41;5048940;28;20584;-54
2021/05/09 03:15:17;;;;;;;1.75;1.63;;;;;;;3.51;67.23;94082.50;5048539;28;20021;-54
2021/05/09 03:17:43;;;;;;;0.82;0.82;;;;;;;3.63;66.23;94084.81;5048632;28;20484;-56
2021/05/09 03:20:09;;;;;;;2.05;1.20;;;;;;;3.45;65.78;94049.72;5048606;28;20663;-53
2021/05/09 03:22:34;;;;;;;0.85;0.85;;;;;;;3.71;66.47;94087.81;5048309;28;20081;-53
2021/05/09 03:25:00;;;;;;;1.17;0.93;;;;;;;3.58;66.79;94082.03;5048539;28;20020;-53
2021/05/09 03:27:25;;;;;;;1.52;1.08;;;;;;;3.70;66.51;94078.13;5048618;28;20021;-53
2021/05/09 03:29:50;;;;;;;2.35;1.17;;;;;;;3.31;67.75;94094.28;5048664;28;20435;-53
2021/05/09 03:32:16;;;;;;;1.35;1.25;;;;;;;3.34;67.74;94098.00;5048510;28;20017;-50
2021/05/09 03:34:41;;;;;;;0.50;0.50;;;;;;;3.16;68.19;94101.88;5048254;28;20025;-51
2021/05/09 03:37:07;;;;;;;0.98;0.93;;;;;;;3.11;69.11;94108.03;5048152;28;20021;-53
2021/05/09 03:39:32;;;;;;;0.90;0.90;;;;;;;3.08;70.08;94109.00;5048452;28;20036;-53
2021/05/09 03:41:57;;;;;;;0.82;0.82;;;;;;;3.26;69.77;94116.06;5048368;28;20432;-53
2021/05/09 03:44:23;;;;;;;1.65;1.55;;;;;;;3.25;68.33;94120.03;5048337;28;20029;-51
2021/05/09 03:46:48;;;;;;;1.55;1.45;;;;;;;3.24;68.65;94132.19;5047986;28;20485;-51
2021/05/09 03:49:14;;;;;;;0.77;0.77;;;;;;;3.26;68.70;94143.34;5048021;28;20028;-49
2021/05/09 03:51:39;;;;;;;1.70;0.93;;;;;;;3.38;68.57;94140.22;5047943;28;20029;-55
2021/05/09 03:54:05;;;;;;;1.48;0.70;;;;;;;3.58;67.33;94140.13;5048004;28;20033;-53
2021/05/09 03:56:30;;;;;;;0.95;0.95;;;;;;;3.60;67.72;94142.34;5048187;28;20029;-54
2021/05/09 03:58:55;;;;;;;2.03;1.70;;;;;;;3.64;67.64;94124.50;5047692;28;20032;-53
2021/05/09 04:01:21;;;;;;;1.05;0.82;;;;;;;3.73;68.03;94137.22;5046692;28;20029;-54
2021/05/09 04:03:46;;;;;;;10.30;5.18;;;;;;;3.91;67.65;94147.00;5048163;28;20017;-56
2021/05/09 04:06:12;;;;;;;8.77;3.13;;;;;;;3.92;67.09;94143.78;5047809;28;20024;-55
2021/05/09 04:08:37;;;;;;;2.30;1.85;;;;;;;3.99;66.63;94154.25;5047769;27;20409;-56
2021/05/09 04:11:03;;;;;;;5.30;2.40;;;;;;;4.24;65.72;94158.88;5047462;28;20421;-55
2021/05/09 04:13:28;;;;;;;2.30;1.20;;;;;;;4.29;65.18;94160.84;5048102;28;20084;-54
2021/05/09 04:15:54;;;;;;;2.10;1.90;;;;;;;4.43;66.11;94165.41;5047696;28;20021;-57
2021/05/09 04:18:19;;;;;;;2.33;2.15;;;;;;;4.72;64.89;94166.25;5047490;28;20037;-57
2021/05/09 04:20:45;;;;;;;4.32;2.33;;;;;;;5.02;64.25;94165.31;5048013;28;20100;-57
2021/05/09 04:23:18;;;;;;;3.13;2.08;;;;;;;5.57;63.05;94167.31;5047337;28;20040;-58
2021/05/09 04:25:51;;;;;;;7.43;4.50;;;;;;;6.26;59.98;94173.69;5047915;28;20031;-54
2021/05/09 04:28:17;;;;;;;4.28;2.88;;;;;;;6.90;58.10;94175.19;5047839;28;20025;-55
2021/05/09 04:30:43;;;;;;;4.13;2.28;;;;;;;7.54;55.03;94176.50;5047209;28;20025;-57
2021/05/09 04:33:09;;;;;;;1.80;1.65;;;;;;;8.06;54.35;94165.31;5046606;28;20133;-51
2021/05/09 04:35:36;;;;;;;4.10;2.20;;;;;;;8.29;52.65;94141.84;5047665;27;20059;-54
2021/05/09 04:38:02;;;;;;;2.83;2.22;;;;;;;8.41;51.89;94170.72;5047607;28;20037;-53
2021/05/09 04:40:28;;;;;;;3.65;1.52;;;;;;;8.35;51.94;94178.31;5047319;28;20025;-55
2021/05/09 04:42:54;;;;;;;2.40;1.60;;;;;;;8.29;52.60;94181.09;5047232;28;20109;-51
2021/05/09 04:45:20;;;;;;;5.00;2.63;;;;;;;8.76;51.16;94161.56;5047377;28;20045;-50
2021/05/09 04:47:45;;;;;;;2.60;2.33;;;;;;;9.32;49.46;94176.06;5047525;28;20597;-48
2021/05/09 04:50:13;;;;;;;4.63;2.55;;;;;;;9.48;49.55;94174.34;5047210;28;20036;-48
2021/05/09 04:52:39;;;;;;;5.63;2.45;;;;;;;9.30;49.18;94170.34;5047369;28;20025;-52
2021/05/09 04:55:06;;;;;;;1.77;1.63;;;;;;;9.28;49.75;94174.88;5047619;28;20013;-49
2021/05/09 04:57:33;;;;;;;2.17;1.67;;;;;;;9.25;50.86;94173.19;5046799;28;20096;-51
2021/05/09 04:59:59;;;;;;;1.80;1.20;;;;;;;9.58;50.49;94170.66;5047173;28;20028;-50
2021/05/09 05:02:25;;;;;;;0.80;0.80;;;;;;;9.79;49.01;94174.34;5047127;28;20029;-54
2021/05/09 05:04:50;;;;;;;2.65;1.42;;;;;;;10.17;48.00;94177.75;5046897;28;20029;-54
2021/05/09 05:07:15;;;;;;;1.58;1.13;;;;;;;10.47;48.91;94185.72;5046800;27;20080;-52
2021/05/09 05:09:41;;;;;;;1.20;1.10;;;;;;;10.57;48.25;94173.72;5046826;28;20032;-50
2021/05/09 05:12:08;;;;;;;1.20;1.10;;;;;;;10.73;47.42;94176.69;5111838;27;20025;-50
2021/05/09 05:14:34;;;;;;;1.48;1.17;;;;;;;10.88;48.05;94177.66;5046748;28;20032;-52
2021/05/09 05:17:00;;;;;;;1.23;1.13;;;;;;;10.86;49.37;94171.91;5046535;28;20029;-53
2021/05/09 05:19:25;;;;;;;1.33;1.20;;;;;;;10.65;47.68;94173.84;5039380;28;20159;-53
2021/05/09 05:21:51;;;;;;;0.93;0.90;;;;;;;10.92;47.25;94180.06;5036574;28;20413;-53
2021/05/09 05:24:17;;;;;;;1.30;1.10;;;;;;;11.46;45.57;94180.16;5035773;28;20382;-53
2021/05/09 05:26:42;;;;;;;1.08;0.82;;;;;;;11.91;44.09;94161.28;5037208;28;20032;-60
2021/05/09 05:29:08;;;;;;;3.03;1.38;;;;;;;12.55;40.97;94189.09;5034459;28;20049;-58
2021/05/09 05:31:33;;;;;;;1.35;1.13;;;;;;;12.79;39.33;94193.50;5043574;28;20029;-57
2021/05/09 05:34:00;;;;;;;1.08;0.70;;;;;;;13.67;38.04;94182.63;5046726;28;20158;-56
2021/05/09 05:36:25;;;;;;;1.35;1.02;;;;;;;14.21;36.09;94175.84;5046717;28;20056;-52
2021/05/09 05:38:51;;;;;;;1.30;1.20;;;;;;;14.47;36.98;94171.97;5046666;28;20463;-52
2021/05/09 05:41:16;;;;;;;0.60;0.60;;;;;;;14.81;37.50;94175.06;5046566;28;20514;-54
2021/05/09 05:43:41;;;;;;;10.05;2.50;;;;;;;15.18;36.58;94179.78;5046660;28;20485;-54
2021/05/09 05:46:07;;;;;;;2.55;1.63;;;;;;;14.36;35.19;94183.44;5046427;28;20450;-58
2021/05/09 05:48:32;;;;;;;2.88;1.33;;;;;;;14.65;34.23;94187.53;5046543;28;20025;-58
2021/05/09 05:50:58;;;;;;;3.00;1.17;;;;;;;14.80;35.24;94170.06;5046107;28;20056;-56
2021/05/09 05:53:25;;;;;;;10.52;0.85;;;;;;;14.78;35.15;94190.09;5046470;28;20029;-57
2021/05/09 05:55:51;;;;;;;5.43;0.90;;;;;;;14.61;37.78;94189.94;5046160;28;20029;-55
2021/05/09 05:58:17;;;;;;;1.38;1.02;;;;;;;14.40;36.25;94198.47;5039870;28;20569;-55
2021/05/09 06:00:43;;;;;;;1.25;1.15;;;;;;;14.06;33.62;94200.06;5038340;28;20014;-58
2021/05/09 06:03:09;;;;;;;0.90;0.90;;;;;;;13.74;35.39;94189.47;5036736;28;20504;-55
2021/05/09 06:05:35;;;;;;;1.58;1.48;;;;;;;13.50;38.00;94195.50;5036679;28;20025;-57
2021/05/09 06:08:00;;;;;;;1.20;0.93;;;;;;;13.53;36.02;94197.94;5037240;28;20021;-55
2021/05/09 06:10:26;;;;;;;1.25;1.15;;;;;;;13.39;37.55;94199.34;5048370;27;20022;-59
2021/05/09 06:12:53;;;;;;;0.95;0.90;;;;;;;13.36;37.81;94203.22;5036069;28;20074;-60
2021/05/09 06:15:19;;;;;;;1.38;1.25;;;;;;;13.50;37.52;94195.50;5042718;28;20040;-60
2021/05/09 06:17:44;;;;;;;1.27;1.13;;;;;;;13.68;35.35;94200.75;5045772;28;20021;-59
2021/05/09 06:20:10;;;;;;;2.03;1.20;;;;;;;13.36;34.95;94203.22;5040241;28;20033;-59
2021/05/09 06:22:36;;;;;;;1.95;1.13;;;;;;;13.36;37.64;94197.66;5043315;28;20124;-60
2021/05/09 06:25:03;;;;;;;1.42;1.10;;;;;;;13.65;35.74;94206.66;5040034;28;20020;-60
2021/05/09 06:27:28;;;;;;;1.20;1.05;;;;;;;13.64;35.57;94203.13;5046757;28;20025;-50
2021/05/09 06:29:53;;;;;;;0.88;0.88;;;;;;;13.85;33.48;94169.69;5043506;28;20476;-60
2021/05/09 06:32:19;;;;;;;2.60;0.95;;;;;;;14.67;32.60;94195.28;5039045;28;20025;-45
2021/05/09 06:34:44;;;;;;;1.25;0.85;;;;;;;15.00;31.91;94200.44;5038465;28;20021;-45
2021/05/09 06:37:11;;;;;;;1.02;0.68;;;;;;;14.99;34.30;94201.72;5039824;28;20077;-45
2021/05/09 06:39:38;;;;;;;0.80;0.73;;;;;;;15.34;31.18;94193.66;5038793;28;20013;-44
2021/05/09 06:42:04;;;;;;;4.03;1.23;;;;;;;15.23;32.33;94191.28;5038547;28;20100;-45
2021/05/09 06:44:31;;;;;;;0.93;0.70;;;;;;;15.97;31.11;94197.81;5039798;28;20025;-45
2021/05/09 06:46:57;;;;;;;12.30;1.05;;;;;;;15.99;31.75;94200.03;5037948;28;20025;-45
2021/05/09 06:49:22;;;;;;;0.80;0.80;;;;;;;16.18;29.99;94198.25;5038284;28;20090;-44
2021/05/09 06:51:49;;;;;;;0.73;0.73;;;;;;;16.26;30.06;94196.16;5039468;28;20025;-45
2021/05/09 06:54:15;;;;;;;0.80;0.70;;;;;;;16.48;32.00;94206.38;5037489;28;20093;-44
2021/05/09 06:56:40;;;;;;;0.63;0.60;;;;;;;16.97;32.95;94207.66;5038696;28;20123;-45
2021/05/09 06:59:06;;;;;;;0.47;0.38;;;;;;;17.78;29.40;94209.41;5039853;28;20104;-45
2021/05/09 07:01:31;;;;;;;0.68;0.68;;;;;;;18.38;29.12;94205.00;5031416;28;20098;-44
2021/05/09 07:03:57;;;;;;;0.77;0.60;;;;;;;19.10;27.79;94204.94;5027258;28;20051;-44
2021/05/09 07:06:22;;;;;;;0.85;0.70;;;;;;;19.25;26.94;94215.84;5028183;28;20461;-42
2021/05/09 07:08:47;;;;;;;0.20;0.20;;;;;;;19.04;24.41;94209.34;5045628;28;20017;-43
2021/05/09 07:11:13;;;;;;;0.65;0.30;;;;;;;19.50;25.58;94213.56;5045366;28;20485;-42
2021/05/09 07:13:38;;;;;;;0.40;0.40;;;;;;;19.97;22.36;94214.84;5039950;28;20060;-44
2021/05/09 07:16:04;;;;;;;0.30;0.30;;;;;;;20.78;23.54;94212.84;5037422;28;20032;-44
2021/05/09 07:18:31;;;;;;;0.38;0.30;;;;;;;21.74;20.80;94212.25;5031245;28;20049;-43
2021/05/09 07:20:58;;;;;;;2.22;0.80;;;;;;;21.84;18.83;94224.91;5032096;28;20021;-41
2021/05/09 07:23:24;;;;;;;0.55;0.50;;;;;;;22.64;18.35;94220.13;5036678;28;20102;-42
2021/05/09 07:25:50;;;;;;;0.30;0.30;;;;;;;23.51;17.54;94219.72;5034440;28;20078;-43
2021/05/09 07:28:17;;;;;;;0.30;0.30;;;;;;;23.66;16.76;94203.00;5035756;28;20021;-42
2021/05/09 07:30:44;;;;;;;2.13;0.32;;;;;;;23.80;17.53;94203.81;5036964;28;20402;-42
2021/05/09 07:33:12;;;;;;;6.53;0.60;;;;;;;23.86;16.93;94223.19;5035481;28;20052;-43
2021/05/09 07:35:38;;;;;;;0.23;0.23;;;;;;;24.33;15.21;94229.34;5034688;28;20040;-43
2021/05/09 07:38:04;;;;;;;0.30;0.30;;;;;;;24.42;16.70;94220.72;5033987;28;20444;-41
2021/05/09 07:40:30;;;;;;;1.75;0.40;;;;;;;25.12;16.05;94229.44;5030525;28;20025;-41
2021/05/09 07:42:55;;;;;;;3.60;0.52;;;;;;;26.15;14.59;94209.22;5045817;28;20201;-42
2021/05/09 07:45:22;;;;;;;0.20;0.20;;;;;;;26.92;13.00;94230.59;5045680;28;20029;-44
2021/05/09 07:47:48;;;;;;;0.68;0.68;;;;;;;26.66;13.12;94223.69;5046002;28;20036;-42
2021/05/09 07:50:15;;;;;;;0.20;0.20;;;;;;;26.58;13.73;94234.63;5040960;28;20053;-42
2021/05/09 07:52:44;;;;;;;0.40;0.40;;;;;;;25.51;14.73;94226.56;5028514;28;20040;-43
2021/05/09 07:55:09;;;;;;;0.40;0.30;;;;;;;26.05;14.46;94222.88;5026205;28;20025;-42
2021/05/09 07:57:35;;;;;;;1.42;0.70;;;;;;;25.49;14.53;94224.34;5030270;28;20405;-40
2021/05/09 08:00:01;;;;;;;0.50;0.40;;;;;;;25.77;15.41;94193.94;5034596;28;20081;-40
2021/05/09 08:02:26;;;;;;;1.80;0.35;;;;;;;26.94;13.93;94230.69;5025890;28;20498;-44
2021/05/09 08:04:52;;;;;;;0.20;0.20;;;;;;;27.72;15.16;94233.47;5025831;28;20046;-42
2021/05/09 08:07:17;;;;;;;0.20;0.20;;;;;;;28.73;12.41;94231.94;5034012;28;20108;-43
2021/05/09 08:09:43;;;;;;;1.02;0.38;;;;;;;27.46;13.60;94227.38;5037453;28;20492;-42
2021/05/09 08:12:08;;;;;;;0.45;0.45;;;;;;;28.31;11.94;94230.94;5045000;28;20413;-43
2021/05/09 08:14:34;;;;;;;0.80;0.30;;;;;;;28.64;12.35;94235.84;5040477;28;20022;-41
2021/05/09 08:16:59;;;;;;;0.22;0.20;;;;;;;27.86;11.73;94233.31;5030226;28;20021;-43
2021/05/09 08:19:25;;;;;;;0.38;0.25;;;;;;;27.82;13.05;94231.03;5032167;28;20057;-42
2021/05/09 08:21:50;;;;;;;0.20;0.20;;;;;;;27.72;12.67;94244.81;5032585;28;20737;-43
2021/05/09 08:24:19;;;;;;;0.47;0.40;;;;;;;26.65;13.69;94234.28;5043752;28;20109;-39
2021/05/09 08:26:45;;;;;;;0.20;0.20;;;;;;;26.74;13.43;94230.50;5037025;28;20033;-41
2021/05/09 08:29:11;;;;;;;1.15;0.70;;;;;;;27.38;13.43;94217.78;5034840;28;20122;-39
2021/05/09 08:31:36;;;;;;;0.10;0.10;;;;;;;27.26;14.42;94231.41;5040169;28;20711;-41
2021/05/09 08:34:03;;;;;;;0.60;0.30;;;;;;;27.65;14.07;94237.41;5025290;28;20029;-41
2021/05/09 08:36:29;;;;;;;0.30;0.30;;;;;;;27.55;14.53;94234.13;5025185;28;20094;-41
2021/05/09 08:38:54;;;;;;;0.20;0.20;;;;;;;27.65;13.01;94223.22;5024699;28;20485;-40
2021/05/09 08:41:21;;;;;;;0.25;0.25;;;;;;;27.44;13.07;94232.25;5025214;28;20057;-41
2021/05/09 08:43:47;;;;;;;0.57;0.30;;;;;;;27.01;13.66;94232.41;5031221;28;20063;-40
2021/05/09 08:46:13;;;;;;;0.30;0.30;;;;;;;26.66;13.80;94232.19;5031647;28;20525;-42
2021/05/09 08:48:39;;;;;;;0.10;0.10;;;;;;;27.19;13.75;94238.16;5040379;28;20036;-42
2021/05/09 08:51:05;;;;;;;0.30;0.30;;;;;;;27.91;13.98;94234.94;5024676;28;20022;-43
2021/05/09 08:53:31;;;;;;;0.20;0.20;;;;;;;28.01;12.98;94241.06;5025164;28;20064;-45
2021/05/09 08:55:57;;;;;;;1.50;0.45;;;;;;;27.71;13.52;94238.41;5025798;28;20021;-41
2021/05/09 08:58:22;;;;;;;0.95;0.22;;;;;;;27.51;14.81;94243.19;5025181;28;20494;-41
2021/05/09 09:00:48;;;;;;;0.30;0.30;;;;;;;27.45;13.52;94242.94;5025313;28;20028;-40
2021/05/09 09:03:14;;;;;;;0.38;0.30;;;;;;;27.55;13.27;94231.28;5025002;28;20029;-39
2021/05/09 09:05:41;;;;;;;0.30;0.30;;;;;;;26.91;13.69;94237.63;5041965;28;20045;-40
2021/05/09 09:08:08;;;;;;;0.30;0.30;;;;;;;27.27;14.09;94230.75;5043410;28;20032;-39
2021/05/09 09:10:43;;;;;;;0.55;0.47;;;;;;;27.39;13.44;94219.25;5045064;28;20035;-39
2021/05/09 09:13:28;;;;;;;0.75;0.40;;;;;;;27.32;14.65;94221.06;5045392;28;20524;-40
2021/05/09 09:16:06;;;;;;;0.52;0.35;;;;;;;27.34;16.06;94240.25;5045235;28;20444;-39
2021/05/09 09:18:39;;;;;;;18.38;0.85;;;;;;;27.76;13.05;94253.50;5044873;28;20060;-40
2021/05/09 09:21:30;;;;;;;1.38;1.10;;;;;;;26.88;14.34;94250.97;5045987;28;20037;-40
2021/05/09 09:24:11;;;;;;;0.30;0.30;;;;;;;27.00;13.01;94234.53;5038698;28;20086;-40
2021/05/09 09:26:39;;;;;;;0.30;0.30;;;;;;;27.70;14.72;94250.38;5034377;28;20013;-40
2021/05/09 09:29:22;;;;;;;0.20;0.20;;;;;;;28.49;13.70;94245.88;5031797;28;20026;-43
2021/05/09 09:31:52;;;;;;;0.35;0.30;;;;;;;28.51;13.85;94243.88;5027445;28;20553;-42
2021/05/09 09:34:17;;;;;;;0.50;0.50;;;;;;;27.66;12.66;94233.19;5027341;28;20028;-41
2021/05/09 09:36:43;;;;;;;0.40;0.40;;;;;;;27.26;14.02;94237.81;5027171;28;20030;-40
2021/05/09 09:39:10;;;;;;;0.20;0.20;;;;;;;27.67;13.26;94231.81;5025836;28;20033;-39
2021/05/09 09:41:46;;;;;;;0.20;0.20;;;;;;;27.05;13.79;94243.94;5027421;28;20029;-41
2021/05/09 09:44:15;;;;;;;0.20;0.20;;;;;;;26.62;14.46;94244.06;5027420;28;20143;-40
2021/05/09 09:46:45;;;;;;;0.10;0.10;;;;;;;27.18;13.48;94248.78;5027550;28;20036;-59
2021/05/09 09:49:22;;;;;;;2.58;0.98;;;;;;;27.36;14.43;94240.38;5027331;28;20036;-57
2021/05/09 09:51:55;;;;;;;0.30;0.30;;;;;;;28.36;13.29;94250.38;5027311;28;20026;-59
2021/05/09 09:54:44;;;;;;;0.20;0.20;;;;;;;28.24;11.86;94249.16;5027474;28;20026;-61
2021/05/09 09:57:30;;;;;;;0.10;0.10;;;;;;;26.97;13.40;94252.06;5027634;28;20026;-61
2021/05/09 10:00:14;;;;;;;1.02;0.30;;;;;;;27.10;14.18;94231.41;5028483;28;20034;-61
2021/05/09 10:02:43;;;;;;;0.20;0.20;;;;;;;26.43;14.10;94241.72;5028710;28;20090;-61
2021/05/09 10:05:09;;;;;;;0.75;0.40;;;;;;;26.45;14.60;94247.50;5047435;28;20029;-61
2021/05/09 10:07:34;;;;;;;3.75;0.65;;;;;;;26.44;14.50;94240.38;5047278;27;20032;-61
2021/05/09 10:10:01;;;;;;;0.30;0.30;;;;;;;27.02;13.13;94231.78;5047858;28;20033;-61
2021/05/09 10:12:27;;;;;;;0.50;0.30;;;;;;;27.62;14.61;94242.25;5047869;28;20025;-60
2021/05/09 10:14:53;;;;;;;0.32;0.20;;;;;;;27.75;14.08;94246.34;5049246;28;20616;-61
2021/05/09 10:17:23;;;;;;;0.30;0.22;;;;;;;28.47;13.04;94238.03;5050547;28;20029;-61
2021/05/09 10:19:48;;;;;;;0.25;0.22;;;;;;;28.43;13.46;94237.88;5049127;28;20436;-60
2021/05/09 10:22:24;;;;;;;0.35;0.35;;;;;;;27.85;12.90;94249.63;5049381;28;20029;-60
2021/05/09 10:24:50;;;;;;;0.45;0.45;;;;;;;27.71;13.00;94243.34;5050598;28;20047;-60
2021/05/09 10:27:15;;;;;;;0.85;0.32;;;;;;;28.27;12.94;94245.00;5050613;28;20469;-61
2021/05/09 10:29:41;;;;;;;0.40;0.30;;;;;;;29.29;12.83;94239.78;5050605;28;20039;-60
2021/05/09 10:32:23;;;;;;;0.20;0.20;;;;;;;29.56;12.89;94235.78;5050461;28;20045;-60
2021/05/09 10:34:51;;;;;;;0.30;0.30;;;;;;;29.57;11.30;94231.53;5050642;28;20029;-61
2021/05/09 10:37:35;;;;;;;0.35;0.20;;;;;;;28.12;12.69;94237.28;5050461;28;20032;-60
2021/05/09 10:40:20;;;;;;;0.17;0.17;;;;;;;27.51;13.88;94234.69;5050123;28;20521;-61
2021/05/09 10:43:08;;;;;;;0.40;0.30;;;;;;;27.76;14.21;94234.34;5050294;28;20032;-60
2021/05/09 10:45:33;;;;;;;0.80;0.50;;;;;;;28.17;13.90;94225.44;5036422;28;20052;-60
2021/05/09 10:50:52;;;;;;;1.08;0.60;;;;;;;27.71;15.33;94231.97;5050354;28;20060;-60
2021/05/09 10:53:33;;;;;;;0.17;0.17;;;;;;;28.22;15.61;94232.72;5050325;28;20417;-60
2021/05/09 10:56:03;;;;;;;0.20;0.20;;;;;;;27.65;13.65;94232.47;5050157;28;20056;-60
2021/05/09 10:58:47;;;;;;;0.43;0.43;;;;;;;25.71;15.44;94226.84;5049854;28;20080;-60
2021/05/09 11:01:17;;;;;;;0.30;0.30;;;;;;;25.83;16.31;94214.03;5029668;28;20029;-60
2021/05/09 11:03:42;;;;;;;1.75;0.45;;;;;;;26.22;16.11;94225.16;5030047;28;20037;-62
2021/05/09 11:06:18;;;;;;;0.65;0.22;;;;;;;26.41;15.39;94221.06;5029874;28;20437;-60
2021/05/09 11:08:53;;;;;;;0.30;0.28;;;;;;;26.66;15.96;94210.25;5029033;28;20490;-60
2021/05/09 11:11:25;;;;;;;0.25;0.22;;;;;;;26.25;16.14;94210.44;5029817;28;20505;-65
2021/05/09 11:13:56;;;;;;;4.18;0.63;;;;;;;26.33;15.87;94221.44;5029987;28;20029;-62
2021/05/09 11:16:25;;;;;;;0.30;0.30;;;;;;;25.58;15.82;94223.38;5029619;28;20033;-60
2021/05/09 11:19:05;;;;;;;0.45;0.40;;;;;;;25.41;17.55;94217.50;5029492;28;20053;-60
2021/05/09 11:21:52;;;;;;;0.40;0.40;;;;;;;25.15;16.56;94214.06;5029781;28;20033;-61
2021/05/09 11:24:24;;;;;;;0.32;0.30;;;;;;;24.03;17.64;94209.38;5029351;28;20056;-60
2021/05/09 11:26:54;;;;;;;0.15;0.15;;;;;;;24.13;17.46;94209.22;5029793;28;20024;-60
2021/05/09 11:29:24;;;;;;;0.45;0.40;;;;;;;24.54;18.26;94195.22;5029868;28;20029;-62
2021/05/09 11:32:05;;;;;;;2.67;1.25;;;;;;;24.11;17.09;94192.16;5029826;28;20025;-62
2021/05/09 11:34:31;;;;;;;4.13;0.30;;;;;;;24.09;18.53;94197.72;5029739;28;20117;-63
2021/05/09 11:36:58;;;;;;;0.30;0.30;;;;;;;23.66;18.48;94169.19;5029593;28;20025;-63
2021/05/09 11:39:39;;;;;;;0.30;0.30;;;;;;;24.02;19.33;94193.78;5029588;28;20162;-63